sensor_id;sensor_type;location;lat;lon;timestamp;P1;durP1;ratioP1;P2;durP2;ratioP2
65924;SDS011;66010;52.084;5.412;2023-05-07T00:01:12;6.68;;;3.10;;
65924;SDS011;66010;52.084;5.412;2023-05-07T00:03:38;8.48;;;2.78;;
65924;SDS011;66010;52.084;5.412;2023-05-07T00:06:05;7.38;;;3.13;;
65924;SDS011;66010;52.084;5.412;2023-05-07T00:08:32;6.60;;;2.63;;
65924;SDS011;66010;52.084;5.412;2023-05-07T00:10:59;7.47;;;3.00;;
65924;SDS011;66010;52.084;5.412;2023-05-07T00:13:25;5.55;;;2.72;;
65924;SDS011;66010;52.084;5.412;2023-05-07T00:15:52;6.47;;;3.22;;
65924;SDS011;66010;52.084;5.412;2023-05-07T00:18:19;7.18;;;2.78;;
65924;SDS011;66010;52.084;5.412;2023-05-07T00:20:48;8.30;;;3.35;;
65924;SDS011;66010;52.084;5.412;2023-05-07T00:23:15;6.72;;;2.80;;
65924;SDS011;66010;52.084;5.412;2023-05-07T00:25:41;8.02;;;2.97;;
65924;SDS011;66010;52.084;5.412;2023-05-07T00:28:08;5.95;;;2.85;;
65924;SDS011;66010;52.084;5.412;2023-05-07T00:30:34;6.38;;;2.67;;
65924;SDS011;66010;52.084;5.412;2023-05-07T00:33:01;5.95;;;2.80;;
65924;SDS011;66010;52.084;5.412;2023-05-07T00:35:28;5.45;;;2.30;;
65924;SDS011;66010;52.084;5.412;2023-05-07T00:37:55;6.50;;;2.40;;
65924;SDS011;66010;52.084;5.412;2023-05-07T00:40:21;4.93;;;2.75;;
65924;SDS011;66010;52.084;5.412;2023-05-07T00:42:48;6.97;;;2.78;;
65924;SDS011;66010;52.084;5.412;2023-05-07T00:45:15;6.63;;;2.70;;
65924;SDS011;66010;52.084;5.412;2023-05-07T00:47:43;8.82;;;2.80;;
65924;SDS011;66010;52.084;5.412;2023-05-07T00:50:10;6.22;;;2.67;;
65924;SDS011;66010;52.084;5.412;2023-05-07T00:52:37;8.23;;;3.22;;
65924;SDS011;66010;52.084;5.412;2023-05-07T00:55:04;7.63;;;2.83;;
65924;SDS011;66010;52.084;5.412;2023-05-07T00:57:33;7.03;;;2.97;;
65924;SDS011;66010;52.084;5.412;2023-05-07T01:00:01;7.10;;;3.20;;
65924;SDS011;66010;52.084;5.412;2023-05-07T01:02:28;8.63;;;2.67;;
65924;SDS011;66010;52.084;5.412;2023-05-07T01:04:55;6.90;;;2.63;;
65924;SDS011;66010;52.084;5.412;2023-05-07T01:09:48;6.53;;;3.40;;
65924;SDS011;66010;52.084;5.412;2023-05-07T01:12:15;7.50;;;3.53;;
65924;SDS011;66010;52.084;5.412;2023-05-07T01:14:42;6.82;;;3.05;;
65924;SDS011;66010;52.084;5.412;2023-05-07T01:17:08;8.45;;;3.40;;
65924;SDS011;66010;52.084;5.412;2023-05-07T01:19:36;7.28;;;2.70;;
65924;SDS011;66010;52.084;5.412;2023-05-07T01:22:05;6.93;;;3.05;;
65924;SDS011;66010;52.084;5.412;2023-05-07T01:24:43;6.00;;;2.85;;
65924;SDS011;66010;52.084;5.412;2023-05-07T01:27:11;8.93;;;2.95;;
65924;SDS011;66010;52.084;5.412;2023-05-07T01:29:37;7.72;;;3.10;;
65924;SDS011;66010;52.084;5.412;2023-05-07T01:32:04;6.50;;;3.25;;
65924;SDS011;66010;52.084;5.412;2023-05-07T01:34:32;5.38;;;2.63;;
65924;SDS011;66010;52.084;5.412;2023-05-07T01:39:25;6.13;;;2.55;;
65924;SDS011;66010;52.084;5.412;2023-05-07T01:41:56;5.97;;;2.83;;
65924;SDS011;66010;52.084;5.412;2023-05-07T01:44:23;7.25;;;3.63;;
65924;SDS011;66010;52.084;5.412;2023-05-07T01:46:50;6.07;;;3.00;;
65924;SDS011;66010;52.084;5.412;2023-05-07T01:49:17;7.78;;;3.15;;
65924;SDS011;66010;52.084;5.412;2023-05-07T01:51:44;6.28;;;3.15;;
65924;SDS011;66010;52.084;5.412;2023-05-07T01:54:11;5.78;;;2.65;;
65924;SDS011;66010;52.084;5.412;2023-05-07T01:56:38;6.82;;;3.20;;
65924;SDS011;66010;52.084;5.412;2023-05-07T01:59:04;6.18;;;3.33;;
65924;SDS011;66010;52.084;5.412;2023-05-07T02:01:31;6.63;;;3.30;;
65924;SDS011;66010;52.084;5.412;2023-05-07T02:03:58;6.18;;;3.05;;
65924;SDS011;66010;52.084;5.412;2023-05-07T02:06:27;6.82;;;2.88;;
65924;SDS011;66010;52.084;5.412;2023-05-07T02:08:59;5.25;;;2.85;;
65924;SDS011;66010;52.084;5.412;2023-05-07T02:11:26;6.15;;;2.78;;
65924;SDS011;66010;52.084;5.412;2023-05-07T02:13:53;12.38;;;2.97;;
65924;SDS011;66010;52.084;5.412;2023-05-07T02:16:19;9.45;;;3.88;;
65924;SDS011;66010;52.084;5.412;2023-05-07T02:18:47;12.45;;;3.08;;
65924;SDS011;66010;52.084;5.412;2023-05-07T02:21:14;7.00;;;3.20;;
65924;SDS011;66010;52.084;5.412;2023-05-07T02:23:41;6.55;;;2.58;;
65924;SDS011;66010;52.084;5.412;2023-05-07T02:26:07;6.68;;;3.65;;
65924;SDS011;66010;52.084;5.412;2023-05-07T02:28:34;7.55;;;3.00;;
65924;SDS011;66010;52.084;5.412;2023-05-07T02:31:05;4.50;;;2.20;;
65924;SDS011;66010;52.084;5.412;2023-05-07T02:36:05;4.95;;;2.10;;
65924;SDS011;66010;52.084;5.412;2023-05-07T02:38:33;5.22;;;2.25;;
65924;SDS011;66010;52.084;5.412;2023-05-07T02:41:00;4.15;;;2.17;;
65924;SDS011;66010;52.084;5.412;2023-05-07T02:43:26;6.70;;;2.30;;
65924;SDS011;66010;52.084;5.412;2023-05-07T02:46:02;4.32;;;2.25;;
65924;SDS011;66010;52.084;5.412;2023-05-07T02:48:29;5.57;;;2.83;;
65924;SDS011;66010;52.084;5.412;2023-05-07T02:50:56;8.85;;;2.83;;
65924;SDS011;66010;52.084;5.412;2023-05-07T02:53:22;7.72;;;3.00;;
65924;SDS011;66010;52.084;5.412;2023-05-07T02:55:58;6.55;;;2.97;;
65924;SDS011;66010;52.084;5.412;2023-05-07T02:58:25;6.35;;;2.53;;
65924;SDS011;66010;52.084;5.412;2023-05-07T03:00:52;6.65;;;2.53;;
65924;SDS011;66010;52.084;5.412;2023-05-07T03:03:29;9.23;;;3.90;;
65924;SDS011;66010;52.084;5.412;2023-05-07T03:05:56;6.18;;;2.90;;
65924;SDS011;66010;52.084;5.412;2023-05-07T03:08:23;6.50;;;3.65;;
65924;SDS011;66010;52.084;5.412;2023-05-07T03:10:49;6.43;;;2.97;;
65924;SDS011;66010;52.084;5.412;2023-05-07T03:13:16;7.63;;;3.83;;
65924;SDS011;66010;52.084;5.412;2023-05-07T03:15:43;6.15;;;2.55;;
65924;SDS011;66010;52.084;5.412;2023-05-07T03:18:09;6.25;;;2.70;;
65924;SDS011;66010;52.084;5.412;2023-05-07T03:20:37;5.10;;;2.80;;
65924;SDS011;66010;52.084;5.412;2023-05-07T03:23:03;4.88;;;2.25;;
65924;SDS011;66010;52.084;5.412;2023-05-07T03:25:30;5.40;;;2.80;;
65924;SDS011;66010;52.084;5.412;2023-05-07T03:27:56;5.78;;;2.80;;
65924;SDS011;66010;52.084;5.412;2023-05-07T03:30:29;6.30;;;2.63;;
65924;SDS011;66010;52.084;5.412;2023-05-07T03:32:56;5.88;;;2.70;;
65924;SDS011;66010;52.084;5.412;2023-05-07T03:35:22;4.53;;;2.42;;
65924;SDS011;66010;52.084;5.412;2023-05-07T03:37:49;6.45;;;2.95;;
65924;SDS011;66010;52.084;5.412;2023-05-07T03:40:17;7.18;;;2.90;;
65924;SDS011;66010;52.084;5.412;2023-05-07T03:42:47;8.00;;;3.72;;
65924;SDS011;66010;52.084;5.412;2023-05-07T03:45:16;6.13;;;2.90;;
65924;SDS011;66010;52.084;5.412;2023-05-07T03:47:48;5.88;;;2.60;;
65924;SDS011;66010;52.084;5.412;2023-05-07T03:50:18;7.28;;;3.35;;
65924;SDS011;66010;52.084;5.412;2023-05-07T03:52:44;7.18;;;3.38;;
65924;SDS011;66010;52.084;5.412;2023-05-07T03:55:12;8.23;;;3.28;;
65924;SDS011;66010;52.084;5.412;2023-05-07T03:57:45;7.97;;;3.33;;
65924;SDS011;66010;52.084;5.412;2023-05-07T04:00:12;7.32;;;3.17;;
65924;SDS011;66010;52.084;5.412;2023-05-07T04:02:48;6.95;;;3.47;;
65924;SDS011;66010;52.084;5.412;2023-05-07T04:07:50;7.72;;;2.65;;
65924;SDS011;66010;52.084;5.412;2023-05-07T04:10:23;5.85;;;2.67;;
65924;SDS011;66010;52.084;5.412;2023-05-07T04:12:53;7.47;;;3.58;;
65924;SDS011;66010;52.084;5.412;2023-05-07T04:15:21;5.45;;;2.75;;
65924;SDS011;66010;52.084;5.412;2023-05-07T04:17:48;5.22;;;2.67;;
65924;SDS011;66010;52.084;5.412;2023-05-07T04:20:17;6.05;;;2.67;;
65924;SDS011;66010;52.084;5.412;2023-05-07T04:22:49;6.10;;;3.15;;
65924;SDS011;66010;52.084;5.412;2023-05-07T04:25:16;6.57;;;2.63;;
65924;SDS011;66010;52.084;5.412;2023-05-07T04:27:43;6.50;;;2.83;;
65924;SDS011;66010;52.084;5.412;2023-05-07T04:30:11;6.57;;;2.58;;
65924;SDS011;66010;52.084;5.412;2023-05-07T04:32:39;6.22;;;2.90;;
65924;SDS011;66010;52.084;5.412;2023-05-07T04:35:05;8.65;;;2.95;;
65924;SDS011;66010;52.084;5.412;2023-05-07T04:37:33;5.80;;;2.47;;
65924;SDS011;66010;52.084;5.412;2023-05-07T04:40:00;7.80;;;3.60;;
65924;SDS011;66010;52.084;5.412;2023-05-07T04:42:27;8.10;;;2.58;;
65924;SDS011;66010;52.084;5.412;2023-05-07T04:47:22;7.85;;;2.80;;
65924;SDS011;66010;52.084;5.412;2023-05-07T04:52:16;6.75;;;2.80;;
65924;SDS011;66010;52.084;5.412;2023-05-07T04:54:43;7.13;;;2.92;;
65924;SDS011;66010;52.084;5.412;2023-05-07T04:59:37;6.03;;;2.40;;
65924;SDS011;66010;52.084;5.412;2023-05-07T05:02:03;7.20;;;3.30;;
65924;SDS011;66010;52.084;5.412;2023-05-07T05:04:31;8.27;;;2.60;;
65924;SDS011;66010;52.084;5.412;2023-05-07T05:06:58;5.13;;;2.55;;
65924;SDS011;66010;52.084;5.412;2023-05-07T05:09:24;6.70;;;2.80;;
65924;SDS011;66010;52.084;5.412;2023-05-07T05:11:51;5.85;;;2.60;;
65924;SDS011;66010;52.084;5.412;2023-05-07T05:14:17;5.18;;;2.70;;
65924;SDS011;66010;52.084;5.412;2023-05-07T05:16:44;6.53;;;2.83;;
65924;SDS011;66010;52.084;5.412;2023-05-07T05:19:11;6.97;;;3.60;;
65924;SDS011;66010;52.084;5.412;2023-05-07T05:21:39;6.72;;;2.97;;
65924;SDS011;66010;52.084;5.412;2023-05-07T05:24:08;6.63;;;2.78;;
65924;SDS011;66010;52.084;5.412;2023-05-07T05:26:35;6.88;;;2.78;;
65924;SDS011;66010;52.084;5.412;2023-05-07T05:29:01;7.35;;;3.10;;
65924;SDS011;66010;52.084;5.412;2023-05-07T05:31:30;7.78;;;2.97;;
65924;SDS011;66010;52.084;5.412;2023-05-07T05:33:56;9.38;;;4.20;;
65924;SDS011;66010;52.084;5.412;2023-05-07T05:36:24;7.35;;;2.88;;
65924;SDS011;66010;52.084;5.412;2023-05-07T05:38:53;7.13;;;3.30;;
65924;SDS011;66010;52.084;5.412;2023-05-07T05:43:48;8.77;;;3.50;;
65924;SDS011;66010;52.084;5.412;2023-05-07T05:46:15;6.90;;;3.10;;
65924;SDS011;66010;52.084;5.412;2023-05-07T05:48:42;7.63;;;3.20;;
65924;SDS011;66010;52.084;5.412;2023-05-07T05:51:10;7.90;;;3.60;;
65924;SDS011;66010;52.084;5.412;2023-05-07T05:53:36;8.48;;;3.40;;
65924;SDS011;66010;52.084;5.412;2023-05-07T05:56:05;8.98;;;3.42;;
65924;SDS011;66010;52.084;5.412;2023-05-07T05:58:33;7.95;;;3.60;;
65924;SDS011;66010;52.084;5.412;2023-05-07T06:01:03;7.78;;;3.05;;
65924;SDS011;66010;52.084;5.412;2023-05-07T06:03:30;9.00;;;3.30;;
65924;SDS011;66010;52.084;5.412;2023-05-07T06:05:59;7.47;;;3.10;;
65924;SDS011;66010;52.084;5.412;2023-05-07T06:08:29;7.53;;;3.10;;
65924;SDS011;66010;52.084;5.412;2023-05-07T06:10:55;6.70;;;3.15;;
65924;SDS011;66010;52.084;5.412;2023-05-07T06:13:22;8.38;;;3.20;;
65924;SDS011;66010;52.084;5.412;2023-05-07T06:15:50;8.60;;;3.50;;
65924;SDS011;66010;52.084;5.412;2023-05-07T06:18:16;10.07;;;3.35;;
65924;SDS011;66010;52.084;5.412;2023-05-07T06:20:43;10.75;;;3.22;;
65924;SDS011;66010;52.084;5.412;2023-05-07T06:23:16;9.57;;;3.72;;
65924;SDS011;66010;52.084;5.412;2023-05-07T06:25:49;14.00;;;3.55;;
65924;SDS011;66010;52.084;5.412;2023-05-07T06:28:18;10.45;;;3.70;;
65924;SDS011;66010;52.084;5.412;2023-05-07T06:30:45;8.93;;;3.78;;
65924;SDS011;66010;52.084;5.412;2023-05-07T06:33:12;9.55;;;3.45;;
65924;SDS011;66010;52.084;5.412;2023-05-07T06:35:38;7.85;;;3.35;;
65924;SDS011;66010;52.084;5.412;2023-05-07T06:38:05;8.50;;;3.38;;
65924;SDS011;66010;52.084;5.412;2023-05-07T06:40:31;7.43;;;3.20;;
65924;SDS011;66010;52.084;5.412;2023-05-07T06:42:59;8.38;;;3.53;;
65924;SDS011;66010;52.084;5.412;2023-05-07T06:45:45;7.78;;;3.53;;
65924;SDS011;66010;52.084;5.412;2023-05-07T06:48:12;9.15;;;3.42;;
65924;SDS011;66010;52.084;5.412;2023-05-07T06:50:49;6.85;;;3.28;;
65924;SDS011;66010;52.084;5.412;2023-05-07T06:53:15;7.90;;;3.40;;
65924;SDS011;66010;52.084;5.412;2023-05-07T06:55:41;7.32;;;3.35;;
65924;SDS011;66010;52.084;5.412;2023-05-07T06:58:09;9.20;;;3.72;;
65924;SDS011;66010;52.084;5.412;2023-05-07T07:00:37;10.48;;;3.83;;
65924;SDS011;66010;52.084;5.412;2023-05-07T07:03:05;11.18;;;4.55;;
65924;SDS011;66010;52.084;5.412;2023-05-07T07:05:32;7.43;;;3.40;;
65924;SDS011;66010;52.084;5.412;2023-05-07T07:08:01;16.77;;;5.78;;
65924;SDS011;66010;52.084;5.412;2023-05-07T07:10:28;8.70;;;3.92;;
65924;SDS011;66010;52.084;5.412;2023-05-07T07:15:21;9.32;;;4.15;;
65924;SDS011;66010;52.084;5.412;2023-05-07T07:20:15;9.18;;;3.40;;
65924;SDS011;66010;52.084;5.412;2023-05-07T07:22:44;9.43;;;4.45;;
65924;SDS011;66010;52.084;5.412;2023-05-07T07:25:11;9.88;;;5.10;;
65924;SDS011;66010;52.084;5.412;2023-05-07T07:27:38;11.73;;;5.88;;
65924;SDS011;66010;52.084;5.412;2023-05-07T07:30:06;10.98;;;5.55;;
65924;SDS011;66010;52.084;5.412;2023-05-07T07:32:36;9.88;;;4.70;;
65924;SDS011;66010;52.084;5.412;2023-05-07T07:35:03;14.30;;;9.48;;
65924;SDS011;66010;52.084;5.412;2023-05-07T07:37:31;9.43;;;5.55;;
65924;SDS011;66010;52.084;5.412;2023-05-07T07:39:58;9.50;;;4.60;;
65924;SDS011;66010;52.084;5.412;2023-05-07T07:42:24;10.95;;;6.15;;
65924;SDS011;66010;52.084;5.412;2023-05-07T07:44:52;9.40;;;4.55;;
65924;SDS011;66010;52.084;5.412;2023-05-07T07:47:21;12.40;;;7.70;;
65924;SDS011;66010;52.084;5.412;2023-05-07T07:49:49;16.30;;;10.15;;
65924;SDS011;66010;52.084;5.412;2023-05-07T07:52:17;14.00;;;9.07;;
65924;SDS011;66010;52.084;5.412;2023-05-07T07:54:45;15.10;;;9.45;;
65924;SDS011;66010;52.084;5.412;2023-05-07T07:57:11;14.27;;;9.07;;
65924;SDS011;66010;52.084;5.412;2023-05-07T07:59:38;16.00;;;10.02;;
65924;SDS011;66010;52.084;5.412;2023-05-07T08:02:06;11.50;;;6.28;;
65924;SDS011;66010;52.084;5.412;2023-05-07T08:07:03;11.48;;;6.00;;
65924;SDS011;66010;52.084;5.412;2023-05-07T08:09:33;8.25;;;4.22;;
65924;SDS011;66010;52.084;5.412;2023-05-07T08:12:01;12.80;;;7.13;;
65924;SDS011;66010;52.084;5.412;2023-05-07T08:14:31;11.48;;;6.53;;
65924;SDS011;66010;52.084;5.412;2023-05-07T08:16:58;9.82;;;5.10;;
65924;SDS011;66010;52.084;5.412;2023-05-07T08:19:25;14.13;;;8.93;;
65924;SDS011;66010;52.084;5.412;2023-05-07T08:21:52;13.10;;;8.70;;
65924;SDS011;66010;52.084;5.412;2023-05-07T08:24:19;8.52;;;4.85;;
65924;SDS011;66010;52.084;5.412;2023-05-07T08:26:46;11.07;;;5.75;;
65924;SDS011;66010;52.084;5.412;2023-05-07T08:29:13;12.77;;;7.57;;
65924;SDS011;66010;52.084;5.412;2023-05-07T08:31:40;13.27;;;8.38;;
65924;SDS011;66010;52.084;5.412;2023-05-07T08:34:07;10.50;;;5.93;;
65924;SDS011;66010;52.084;5.412;2023-05-07T08:36:38;8.48;;;4.15;;
65924;SDS011;66010;52.084;5.412;2023-05-07T08:39:05;10.70;;;5.88;;
65924;SDS011;66010;52.084;5.412;2023-05-07T08:41:33;8.73;;;3.70;;
65924;SDS011;66010;52.084;5.412;2023-05-07T08:44:00;9.88;;;5.10;;
65924;SDS011;66010;52.084;5.412;2023-05-07T08:46:31;7.72;;;3.80;;
65924;SDS011;66010;52.084;5.412;2023-05-07T08:48:58;7.78;;;3.88;;
65924;SDS011;66010;52.084;5.412;2023-05-07T08:51:25;9.73;;;4.63;;
65924;SDS011;66010;52.084;5.412;2023-05-07T08:53:52;8.30;;;3.30;;
65924;SDS011;66010;52.084;5.412;2023-05-07T08:56:26;8.07;;;2.88;;
65924;SDS011;66010;52.084;5.412;2023-05-07T08:58:53;7.53;;;3.13;;
65924;SDS011;66010;52.084;5.412;2023-05-07T09:01:23;6.45;;;2.70;;
65924;SDS011;66010;52.084;5.412;2023-05-07T09:03:51;6.13;;;2.65;;
65924;SDS011;66010;52.084;5.412;2023-05-07T09:06:19;7.68;;;3.25;;
65924;SDS011;66010;52.084;5.412;2023-05-07T09:08:53;5.82;;;2.40;;
65924;SDS011;66010;52.084;5.412;2023-05-07T09:11:23;5.47;;;2.22;;
65924;SDS011;66010;52.084;5.412;2023-05-07T09:13:55;10.13;;;2.60;;
65924;SDS011;66010;52.084;5.412;2023-05-07T09:16:23;7.28;;;2.83;;
65924;SDS011;66010;52.084;5.412;2023-05-07T09:18:53;7.28;;;2.92;;
65924;SDS011;66010;52.084;5.412;2023-05-07T09:21:21;7.78;;;2.35;;
65924;SDS011;66010;52.084;5.412;2023-05-07T09:23:52;7.15;;;2.58;;
65924;SDS011;66010;52.084;5.412;2023-05-07T09:26:21;7.80;;;3.05;;
65924;SDS011;66010;52.084;5.412;2023-05-07T09:28:48;8.43;;;3.33;;
65924;SDS011;66010;52.084;5.412;2023-05-07T09:31:15;8.10;;;3.00;;
65924;SDS011;66010;52.084;5.412;2023-05-07T09:33:44;7.28;;;3.05;;
65924;SDS011;66010;52.084;5.412;2023-05-07T09:36:12;7.88;;;3.08;;
65924;SDS011;66010;52.084;5.412;2023-05-07T09:38:40;11.85;;;3.72;;
65924;SDS011;66010;52.084;5.412;2023-05-07T09:41:11;8.95;;;4.43;;
65924;SDS011;66010;52.084;5.412;2023-05-07T09:43:53;10.85;;;4.65;;
65924;SDS011;66010;52.084;5.412;2023-05-07T09:46:24;10.23;;;5.13;;
65924;SDS011;66010;52.084;5.412;2023-05-07T09:48:52;9.80;;;5.18;;
65924;SDS011;66010;52.084;5.412;2023-05-07T09:51:24;9.20;;;4.97;;
65924;SDS011;66010;52.084;5.412;2023-05-07T09:53:54;11.02;;;6.75;;
65924;SDS011;66010;52.084;5.412;2023-05-07T09:56:22;11.65;;;6.47;;
65924;SDS011;66010;52.084;5.412;2023-05-07T09:58:50;8.20;;;4.60;;
65924;SDS011;66010;52.084;5.412;2023-05-07T10:01:17;10.25;;;5.97;;
65924;SDS011;66010;52.084;5.412;2023-05-07T10:03:45;11.32;;;6.00;;
65924;SDS011;66010;52.084;5.412;2023-05-07T10:06:13;10.30;;;5.43;;
65924;SDS011;66010;52.084;5.412;2023-05-07T10:08:40;10.73;;;5.97;;
65924;SDS011;66010;52.084;5.412;2023-05-07T10:11:08;13.57;;;7.78;;
65924;SDS011;66010;52.084;5.412;2023-05-07T10:13:35;9.02;;;5.57;;
65924;SDS011;66010;52.084;5.412;2023-05-07T10:16:06;9.95;;;6.00;;
65924;SDS011;66010;52.084;5.412;2023-05-07T10:18:40;10.38;;;6.03;;
65924;SDS011;66010;52.084;5.412;2023-05-07T10:21:19;10.73;;;6.88;;
65924;SDS011;66010;52.084;5.412;2023-05-07T10:23:59;12.30;;;7.18;;
65924;SDS011;66010;52.084;5.412;2023-05-07T10:26:30;13.05;;;5.57;;
65924;SDS011;66010;52.084;5.412;2023-05-07T10:28:59;11.32;;;6.45;;
65924;SDS011;66010;52.084;5.412;2023-05-07T10:34:11;13.05;;;7.60;;
65924;SDS011;66010;52.084;5.412;2023-05-07T10:36:40;12.50;;;7.68;;
65924;SDS011;66010;52.084;5.412;2023-05-07T10:39:07;13.77;;;7.53;;
65924;SDS011;66010;52.084;5.412;2023-05-07T10:41:36;13.68;;;8.60;;
65924;SDS011;66010;52.084;5.412;2023-05-07T10:44:03;11.00;;;7.25;;
65924;SDS011;66010;52.084;5.412;2023-05-07T10:46:32;13.65;;;7.75;;
65924;SDS011;66010;52.084;5.412;2023-05-07T10:49:08;11.27;;;6.85;;
65924;SDS011;66010;52.084;5.412;2023-05-07T10:51:43;11.70;;;6.60;;
65924;SDS011;66010;52.084;5.412;2023-05-07T10:54:24;10.45;;;5.00;;
65924;SDS011;66010;52.084;5.412;2023-05-07T11:00:00;13.93;;;9.15;;
65924;SDS011;66010;52.084;5.412;2023-05-07T11:05:23;14.60;;;9.25;;
65924;SDS011;66010;52.084;5.412;2023-05-07T11:08:01;11.88;;;7.38;;
65924;SDS011;66010;52.084;5.412;2023-05-07T11:13:43;17.35;;;11.80;;
65924;SDS011;66010;52.084;5.412;2023-05-07T11:16:20;16.70;;;10.75;;
65924;SDS011;66010;52.084;5.412;2023-05-07T11:18:56;15.93;;;10.55;;
65924;SDS011;66010;52.084;5.412;2023-05-07T11:21:36;12.18;;;6.45;;
65924;SDS011;66010;52.084;5.412;2023-05-07T11:24:19;12.65;;;7.85;;
65924;SDS011;66010;52.084;5.412;2023-05-07T11:26:54;11.57;;;5.53;;
65924;SDS011;66010;52.084;5.412;2023-05-07T11:29:23;14.07;;;8.27;;
65924;SDS011;66010;52.084;5.412;2023-05-07T11:31:55;9.18;;;4.47;;
65924;SDS011;66010;52.084;5.412;2023-05-07T11:34:26;12.85;;;8.20;;
65924;SDS011;66010;52.084;5.412;2023-05-07T11:36:54;10.07;;;3.85;;
65924;SDS011;66010;52.084;5.412;2023-05-07T11:39:34;10.48;;;4.50;;
65924;SDS011;66010;52.084;5.412;2023-05-07T11:42:02;7.65;;;4.50;;
65924;SDS011;66010;52.084;5.412;2023-05-07T11:44:41;9.48;;;5.00;;
65924;SDS011;66010;52.084;5.412;2023-05-07T11:47:08;8.75;;;4.75;;
65924;SDS011;66010;52.084;5.412;2023-05-07T11:49:34;10.25;;;5.00;;
65924;SDS011;66010;52.084;5.412;2023-05-07T11:52:01;14.68;;;9.88;;
65924;SDS011;66010;52.084;5.412;2023-05-07T11:54:36;13.93;;;8.40;;
65924;SDS011;66010;52.084;5.412;2023-05-07T11:57:03;12.00;;;7.03;;
65924;SDS011;66010;52.084;5.412;2023-05-07T11:59:29;13.30;;;8.43;;
65924;SDS011;66010;52.084;5.412;2023-05-07T12:01:57;15.45;;;9.32;;
65924;SDS011;66010;52.084;5.412;2023-05-07T12:04:24;12.48;;;7.65;;
65924;SDS011;66010;52.084;5.412;2023-05-07T12:06:53;10.63;;;6.00;;
65924;SDS011;66010;52.084;5.412;2023-05-07T12:09:20;8.70;;;4.50;;
65924;SDS011;66010;52.084;5.412;2023-05-07T12:11:46;7.65;;;4.18;;
65924;SDS011;66010;52.084;5.412;2023-05-07T12:14:13;11.02;;;4.75;;
65924;SDS011;66010;52.084;5.412;2023-05-07T12:16:42;10.57;;;6.00;;
65924;SDS011;66010;52.084;5.412;2023-05-07T12:19:09;9.32;;;5.40;;
65924;SDS011;66010;52.084;5.412;2023-05-07T12:21:41;10.73;;;5.70;;
65924;SDS011;66010;52.084;5.412;2023-05-07T12:24:07;8.20;;;4.10;;
65924;SDS011;66010;52.084;5.412;2023-05-07T12:26:37;10.48;;;4.85;;
65924;SDS011;66010;52.084;5.412;2023-05-07T12:29:04;11.40;;;6.03;;
65924;SDS011;66010;52.084;5.412;2023-05-07T12:31:30;11.98;;;6.63;;
65924;SDS011;66010;52.084;5.412;2023-05-07T12:33:57;11.93;;;5.90;;
65924;SDS011;66010;52.084;5.412;2023-05-07T12:36:23;10.63;;;6.07;;
65924;SDS011;66010;52.084;5.412;2023-05-07T12:38:51;8.65;;;3.80;;
65924;SDS011;66010;52.084;5.412;2023-05-07T12:41:17;8.98;;;4.53;;
65924;SDS011;66010;52.084;5.412;2023-05-07T12:43:44;8.27;;;3.92;;
65924;SDS011;66010;52.084;5.412;2023-05-07T12:46:12;7.57;;;3.55;;
65924;SDS011;66010;52.084;5.412;2023-05-07T12:48:44;8.80;;;3.97;;
65924;SDS011;66010;52.084;5.412;2023-05-07T12:51:11;8.65;;;3.60;;
65924;SDS011;66010;52.084;5.412;2023-05-07T12:53:40;8.48;;;3.33;;
65924;SDS011;66010;52.084;5.412;2023-05-07T12:56:08;8.65;;;3.60;;
65924;SDS011;66010;52.084;5.412;2023-05-07T12:58:35;7.20;;;3.70;;
65924;SDS011;66010;52.084;5.412;2023-05-07T13:01:06;8.40;;;3.60;;
65924;SDS011;66010;52.084;5.412;2023-05-07T13:03:36;7.13;;;2.92;;
65924;SDS011;66010;52.084;5.412;2023-05-07T13:06:04;7.65;;;2.92;;
65924;SDS011;66010;52.084;5.412;2023-05-07T13:08:32;8.05;;;3.88;;
65924;SDS011;66010;52.084;5.412;2023-05-07T13:10:59;8.57;;;3.40;;
65924;SDS011;66010;52.084;5.412;2023-05-07T13:13:30;7.18;;;3.08;;
65924;SDS011;66010;52.084;5.412;2023-05-07T13:15:58;9.85;;;3.78;;
65924;SDS011;66010;52.084;5.412;2023-05-07T13:18:25;7.57;;;4.38;;
65924;SDS011;66010;52.084;5.412;2023-05-07T13:20:53;7.47;;;4.00;;
65924;SDS011;66010;52.084;5.412;2023-05-07T13:25:47;9.60;;;4.90;;
65924;SDS011;66010;52.084;5.412;2023-05-07T13:28:15;9.43;;;4.00;;
65924;SDS011;66010;52.084;5.412;2023-05-07T13:30:42;8.02;;;4.10;;
65924;SDS011;66010;52.084;5.412;2023-05-07T13:33:09;9.65;;;4.10;;
65924;SDS011;66010;52.084;5.412;2023-05-07T13:35:35;10.57;;;5.55;;
65924;SDS011;66010;52.084;5.412;2023-05-07T13:38:02;11.48;;;6.82;;
65924;SDS011;66010;52.084;5.412;2023-05-07T13:40:29;8.02;;;3.65;;
65924;SDS011;66010;52.084;5.412;2023-05-07T13:42:56;11.65;;;6.57;;
65924;SDS011;66010;52.084;5.412;2023-05-07T13:45:24;12.82;;;7.10;;
65924;SDS011;66010;52.084;5.412;2023-05-07T13:47:55;11.10;;;6.55;;
65924;SDS011;66010;52.084;5.412;2023-05-07T13:50:22;12.98;;;7.28;;
65924;SDS011;66010;52.084;5.412;2023-05-07T13:52:49;16.95;;;11.07;;
65924;SDS011;66010;52.084;5.412;2023-05-07T13:55:19;16.08;;;9.32;;
65924;SDS011;66010;52.084;5.412;2023-05-07T13:57:46;16.10;;;10.07;;
65924;SDS011;66010;52.084;5.412;2023-05-07T14:00:13;16.45;;;9.93;;
65924;SDS011;66010;52.084;5.412;2023-05-07T14:02:42;10.50;;;5.57;;
65924;SDS011;66010;52.084;5.412;2023-05-07T14:05:10;12.23;;;7.20;;
65924;SDS011;66010;52.084;5.412;2023-05-07T14:07:36;10.98;;;5.88;;
65924;SDS011;66010;52.084;5.412;2023-05-07T14:10:03;14.10;;;9.20;;
65924;SDS011;66010;52.084;5.412;2023-05-07T14:12:31;13.45;;;8.40;;
65924;SDS011;66010;52.084;5.412;2023-05-07T14:17:24;13.32;;;8.18;;
65924;SDS011;66010;52.084;5.412;2023-05-07T14:19:52;13.20;;;9.00;;
65924;SDS011;66010;52.084;5.412;2023-05-07T14:22:21;15.48;;;10.73;;
65924;SDS011;66010;52.084;5.412;2023-05-07T14:24:48;16.02;;;9.40;;
65924;SDS011;66010;52.084;5.412;2023-05-07T14:27:31;16.23;;;10.15;;
65924;SDS011;66010;52.084;5.412;2023-05-07T14:29:58;14.90;;;8.95;;
65924;SDS011;66010;52.084;5.412;2023-05-07T14:32:24;14.55;;;8.98;;
65924;SDS011;66010;52.084;5.412;2023-05-07T14:34:51;12.70;;;7.72;;
65924;SDS011;66010;52.084;5.412;2023-05-07T14:37:17;13.05;;;7.90;;
65924;SDS011;66010;52.084;5.412;2023-05-07T14:39:46;15.63;;;7.88;;
65924;SDS011;66010;52.084;5.412;2023-05-07T14:42:15;18.65;;;11.27;;
65924;SDS011;66010;52.084;5.412;2023-05-07T14:44:42;15.43;;;9.27;;
65924;SDS011;66010;52.084;5.412;2023-05-07T14:47:10;19.88;;;12.75;;
65924;SDS011;66010;52.084;5.412;2023-05-07T14:49:37;18.23;;;12.20;;
65924;SDS011;66010;52.084;5.412;2023-05-07T14:52:03;16.15;;;11.38;;
65924;SDS011;66010;52.084;5.412;2023-05-07T14:54:33;35.35;;;10.52;;
65924;SDS011;66010;52.084;5.412;2023-05-07T14:57:04;18.17;;;11.70;;
65924;SDS011;66010;52.084;5.412;2023-05-07T14:59:31;15.88;;;9.77;;
65924;SDS011;66010;52.084;5.412;2023-05-07T15:01:58;15.43;;;9.73;;
65924;SDS011;66010;52.084;5.412;2023-05-07T15:04:24;17.42;;;10.27;;
65924;SDS011;66010;52.084;5.412;2023-05-07T15:06:51;16.60;;;11.35;;
65924;SDS011;66010;52.084;5.412;2023-05-07T15:09:20;16.83;;;9.98;;
65924;SDS011;66010;52.084;5.412;2023-05-07T15:11:46;15.10;;;9.32;;
65924;SDS011;66010;52.084;5.412;2023-05-07T15:14:12;18.15;;;11.27;;
65924;SDS011;66010;52.084;5.412;2023-05-07T15:16:39;15.38;;;9.73;;
65924;SDS011;66010;52.084;5.412;2023-05-07T15:19:06;15.75;;;10.25;;
65924;SDS011;66010;52.084;5.412;2023-05-07T15:21:32;14.68;;;8.43;;
65924;SDS011;66010;52.084;5.412;2023-05-07T15:24:01;12.20;;;7.65;;
65924;SDS011;66010;52.084;5.412;2023-05-07T15:26:27;12.80;;;7.13;;
65924;SDS011;66010;52.084;5.412;2023-05-07T15:28:54;12.15;;;6.90;;
65924;SDS011;66010;52.084;5.412;2023-05-07T15:31:24;10.40;;;5.97;;
65924;SDS011;66010;52.084;5.412;2023-05-07T15:33:51;13.18;;;8.75;;